Etusivu
METAR-TAF:

METAR-TAF

Lentoasemat :

Ouargla, Algeria

Leveyspiiri: 31-55N, Pituuspiiri: 005-24E, korkeus merenpinnasta: 141 m

Tämänhetkinen sää

Tämä raportti tehtiin 45 minuuttia sitten, kello 14.00 UTC
Tuuli 15 kn lännestä/luoteesta
Lämpötila 20°C
Kosteus 28%
Ilmanpaine 1009 hPa
Näkyvyys: 4000 m
matalaa hiekkatuisku

METAR: DAUU 281400Z 29015KT 4000 DRSA NSC 20/01 Q1009

Aika: 15:45 (14:45 UTC)

Sääennuste

Tämä raportti tehtiin 3 tuntia ja 45 minuuttia sitten, kello 11.00 UTC
Ennuste voimassa 28. päivästä klo 12 UTC - 28. päivään klo 21 UTC
Tuuli 14 kn lännestä
Näkyvyys: 8000 m
Todennäköisyys 40% :
Ajoittain
28. päivästä klo 12 UTC - 28. päivään klo 18 UTC
Tuuli 15 kn lännestä puuskistuen 30 kn:hen
Näkyvyys: 2000 m
matalaa hiekkatuisku

TAF: DAUU 281100Z 2812/2821 26014KT 8000 NSC PROB40 TEMPO 2812/2818 28015G30KT 2000 DRSA

Säähavainnot ja -ennusteet yli 4000 lentoasemalta (METAR- ja TAF-raportit).

Käytössä olevat sääasemat on merkitty karttaan keltaisilla ja punaisilla pisteillä.

Aseta hiiri pisteen päälle nähdäksesi sääaseman nimen.

Klikkaa sitten nähdäksesi säähavainnot ja -ennusteet.

Kartan vaihtaminen: klikkaa mustalla rastilla varustettuja vihreitä pisteitä, niin voit zoomata sisään; viivalla varustettua vihreää pistettä, niin voit zoomata ulos tai vihreitä nuolia, niin pääset viereisille kartoille.


METAR-TAF: